Map

Track Data

SID SEASON NUMBER BASIN SUBBASIN NAME ISO_TIME NATURE LAT LON WMO_WIND WMO_PRES WMO_AGENCY TRACK_TYPE DIST2LAND LANDFALL IFLAG USA_AGENCY USA_ATCF_ID USA_LAT USA_LON USA_RECORD USA_STATUS USA_WIND USA_PRES USA_SSHS USA_R34_NE USA_R34_SE USA_R34_SW USA_R34_NW USA_R50_NE USA_R50_SE USA_R50_SW USA_R50_NW USA_R64_NE USA_R64_SE USA_R64_SW USA_R64_NW USA_POCI USA_ROCI USA_RMW USA_EYE TOKYO_LAT TOKYO_LON TOKYO_GRADE TOKYO_WIND TOKYO_PRES TOKYO_R50_DIR TOKYO_R50_LONG TOKYO_R50_SHORT TOKYO_R30_DIR TOKYO_R30_LONG TOKYO_R30_SHORT TOKYO_LAND CMA_LAT CMA_LON CMA_CAT CMA_WIND CMA_PRES HKO_LAT HKO_LON HKO_CAT HKO_WIND HKO_PRES NEWDELHI_LAT NEWDELHI_LON NEWDELHI_GRADE NEWDELHI_WIND NEWDELHI_PRES NEWDELHI_CI NEWDELHI_DP NEWDELHI_POCI REUNION_LAT REUNION_LON REUNION_TYPE REUNION_WIND REUNION_PRES REUNION_TNUM REUNION_CI REUNION_RMW REUNION_R34_NE REUNION_R34_SE REUNION_R34_SW REUNION_R34_NW REUNION_R50_NE REUNION_R50_SE REUNION_R50_SW REUNION_R50_NW REUNION_R64_NE REUNION_R64_SE REUNION_R64_SW REUNION_R64_NW BOM_LAT BOM_LON BOM_TYPE BOM_WIND BOM_PRES BOM_TNUM BOM_CI BOM_RMW BOM_R34_NE BOM_R34_SE BOM_R34_SW BOM_R34_NW BOM_R50_NE BOM_R50_SE BOM_R50_SW BOM_R50_NW BOM_R64_NE BOM_R64_SE BOM_R64_SW BOM_R64_NW BOM_ROCI BOM_POCI BOM_EYE BOM_POS_METHOD BOM_PRES_METHOD NADI_LAT NADI_LON NADI_CAT NADI_WIND NADI_PRES WELLINGTON_LAT WELLINGTON_LON WELLINGTON_WIND WELLINGTON_PRES DS824_LAT DS824_LON DS824_STAGE DS824_WIND DS824_PRES TD9636_LAT TD9636_LON TD9636_STAGE TD9636_WIND TD9636_PRES TD9635_LAT TD9635_LON TD9635_WIND TD9635_PRES TD9635_ROCI NEUMANN_LAT NEUMANN_LON NEUMANN_CLASS NEUMANN_WIND NEUMANN_PRES MLC_LAT MLC_LON MLC_CLASS MLC_WIND MLC_PRES USA_GUST BOM_GUST BOM_GUST_PER REUNION_GUST REUNION_GUST_PER USA_SEAHGT USA_SEARAD_NE USA_SEARAD_SE USA_SEARAD_SW USA_SEARAD_NW STORM_SPEED STORM_DIR
1979172N10257 1979 46 EP MM BLANCA 1979-06-21 06:00:00 TS 9.50000 -102.700 25 hurdat_epa main 869 869 O________OO___ hurdat_epa EP021979 9.50000 -102.700 TD 25 -1 9.50000 -102.700 TC 25 9.50000 -102.700 1 25 15 261
1979172N10257 1979 46 EP MM BLANCA 1979-06-21 09:00:00 TS 9.38206 -103.446 main 910 910 P________PP___ EP021979 9.38027 -103.445 TD 27 -1 9.38027 -103.445 TC 27 9.38922 -103.451 1 27 15 262
1979172N10257 1979 46 EP MM BLANCA 1979-06-21 12:00:00 TS 9.30000 -104.200 30 hurdat_epa main 956 956 O________OO___ hurdat_epa EP021979 9.30000 -104.200 TD 30 -1 9.30000 -104.200 TC 30 9.30000 -104.200 1 30 15 266
1979172N10257 1979 46 EP MM BLANCA 1979-06-21 15:00:00 TS 9.27804 -104.961 main 990 990 P________PP___ EP021979 9.28493 -104.965 TD 30 -1 9.28493 -104.965 TC 30 9.25045 -104.943 1 31 15 270
1979172N10257 1979 46 EP MM BLANCA 1979-06-21 18:00:00 TS 9.28771 -105.694 30 hurdat_epa main 1024 1024 O________OP___ hurdat_epa EP021979 9.30000 -105.700 TD 30 -1 9.30000 -105.700 TC 30 9.23855 -105.668 1 32 14 270
1979172N10257 1979 46 EP MM BLANCA 1979-06-21 21:00:00 TS 9.27937 -106.376 main 1054 1054 P________PP___ EP021979 9.28487 -106.380 TD 32 -1 9.28487 -106.380 TC 32 9.25734 -106.359 1 33 13 271
1979172N10257 1979 46 EP MM BLANCA 1979-06-22 00:00:00 TS 9.30000 -107.000 35 hurdat_epa main 1076 1076 O________OO___ hurdat_epa EP021979 9.30000 -107.000 TS 35 0 9.30000 -107.000 TC 35 9.30000 -107.000 2 35 12 275
1979172N10257 1979 46 EP MM BLANCA 1979-06-22 03:00:00 TS 9.38365 -107.574 main 1090 1090 P________PP___ EP021979 9.39237 -107.572 TS 40 0 9.39237 -107.572 TC 40 9.34876 -107.579 2 37 11 280
1979172N10257 1979 46 EP MM BLANCA 1979-06-22 06:00:00 TS 9.48385 -108.102 45 hurdat_epa main 1103 1103 O________OP___ hurdat_epa EP021979 9.50000 -108.100 TS 45 0 9.50000 -108.100 TC 45 9.41924 -108.110 2 40 10 279
1979172N10257 1979 46 EP MM BLANCA 1979-06-22 09:00:00 TS 9.54694 -108.608 main 1128 1118 P________PP___ EP021979 9.55740 -108.608 TS 45 0 9.55740 -108.608 TC 45 9.50512 -108.611 2 42 10 277
1979172N10257 1979 46 EP MM BLANCA 1979-06-22 12:00:00 TS 9.60000 -109.100 45 hurdat_epa main 1146 1146 O________OO___ hurdat_epa EP021979 9.60000 -109.100 TS 45 0 9.60000 -109.100 TC 45 9.60000 -109.100 2 45 10 276
1979172N10257 1979 46 EP MM BLANCA 1979-06-22 15:00:00 TS 9.64725 -109.600 main 1175 1166 P________PP___ EP021979 9.63493 -109.600 TS 45 0 9.63493 -109.600 TC 45 9.69652 -109.599 2 45 10 277
1979172N10257 1979 46 EP MM BLANCA 1979-06-22 18:00:00 TS 9.71990 -110.099 45 hurdat_epa main 1197 1194 O________OP___ hurdat_epa EP021979 9.70000 -110.100 TS 45 0 9.70000 -110.100 TC 45 9.79951 -110.093 2 45 10 282
1979172N10257 1979 46 EP MM BLANCA 1979-06-22 21:00:00 TS 9.85452 -110.604 main 1212 1212 P________PP___ EP021979 9.84246 -110.607 TS 45 0 9.84246 -110.607 TC 45 9.90275 -110.590 2 45 10 286
1979172N10257 1979 46 EP MM BLANCA 1979-06-23 00:00:00 TS 10.0000 -111.100 45 hurdat_epa main 1232 1232 O________OO___ hurdat_epa EP021979 10.0000 -111.100 TS 45 0 10.0000 -111.100 TC 45 10.0000 -111.100 2 45 10 285
1979172N10257 1979 46 EP MM BLANCA 1979-06-23 03:00:00 TS 10.1033 -111.548 main 1247 1247 P________PP___ EP021979 10.1148 -111.528 TS 45 0 10.1148 -111.528 TC 45 10.0576 -111.632 2 45 9 281
1979172N10257 1979 46 EP MM BLANCA 1979-06-23 06:00:00 TS 10.1824 -112.036 45 hurdat_epa main 1270 1270 O________OP___ hurdat_epa EP021979 10.2000 -112.000 TS 45 0 10.2000 -112.000 TC 45 10.1122 -112.178 2 45 11 276
1979172N10257 1979 46 EP MM BLANCA 1979-06-23 09:00:00 TS 10.2252 -112.655 main 1317 1317 P________PP___ EP021979 10.2351 -112.635 TS 45 0 10.2351 -112.635 TC 45 10.1857 -112.735 2 45 13 275
1979172N10257 1979 46 EP MM BLANCA 1979-06-23 12:00:00 TS 10.3000 -113.300 45 hurdat_epa main 1351 1351 O________OO___ hurdat_epa EP021979 10.3000 -113.300 TS 45 0 10.3000 -113.300 TC 45 10.3000 -113.300 2 45 12 282
1979172N10257 1979 46 EP MM BLANCA 1979-06-23 15:00:00 TS 10.4770 -113.857 main 1379 1379 P________PP___ EP021979 10.4698 -113.858 TS 45 0 10.4698 -113.858 TC 45 10.5058 -113.855 2 43 12 291
1979172N10257 1979 46 EP MM BLANCA 1979-06-23 18:00:00 TS 10.7099 -114.404 45 hurdat_epa main 1401 1401 O________OP___ hurdat_epa EP021979 10.7000 -114.400 TS 45 0 10.7000 -114.400 TC 45 10.7494 -114.419 2 42 12 294
1979172N10257 1979 46 EP MM BLANCA 1979-06-23 21:00:00 TS 10.9766 -114.988 main 1424 1424 P________PP___ EP021979 10.9724 -114.985 TS 42 0 10.9724 -114.985 TC 42 10.9933 -114.999 2 41 13 293
1979172N10257 1979 46 EP MM BLANCA 1979-06-24 00:00:00 TS 11.2000 -115.600 40 hurdat_epa main 1437 1437 O________OO___ hurdat_epa EP021979 11.2000 -115.600 TS 40 0 11.2000 -115.600 TC 40 11.2000 -115.600 2 40 13 284
1979172N10257 1979 46 EP MM BLANCA 1979-06-24 03:00:00 TS 11.2758 -116.238 main 1455 1455 P________PP___ EP021979 11.2724 -116.243 TS 40 0 11.2724 -116.243 TC 40 11.2894 -116.221 2 38 13 275
1979172N10257 1979 46 EP MM BLANCA 1979-06-24 06:00:00 TS 11.3084 -116.893 40 hurdat_epa main 1490 1490 O________OP___ hurdat_epa EP021979 11.3000 -116.900 TS 40 0 11.3000 -116.900 TC 40 11.3420 -116.864 2 37 13 275
1979172N10257 1979 46 EP MM BLANCA 1979-06-24 09:00:00 TS 11.3876 -117.545 main 1512 1512 P________PP___ EP021979 11.3849 -117.550 TS 37 0 11.3849 -117.550 TC 37 11.3987 -117.525 2 36 13 279
1979172N10257 1979 46 EP MM BLANCA 1979-06-24 12:00:00 TS 11.5000 -118.200 35 hurdat_epa main 1543 1543 O________OO___ hurdat_epa EP021979 11.5000 -118.200 TS 35 0 11.5000 -118.200 TC 35 11.5000 -118.200 2 35 13 281
1979172N10257 1979 46 EP MM BLANCA 1979-06-24 15:00:00 TS 11.6311 -118.836 main 1571 1568 P________PP___ EP021979 11.6123 -118.835 TS 35 0 11.6123 -118.835 TC 35 11.7066 -118.841 2 35 13 285
1979172N10257 1979 46 EP MM BLANCA 1979-06-24 18:00:00 TS 11.8321 -119.501 35 hurdat_epa main 1598 1596 O________OP___ hurdat_epa EP021979 11.8000 -119.500 TS 35 0 11.8000 -119.500 TC 35 11.9606 -119.503 2 35 15 292
1979172N10257 1979 46 EP MM BLANCA 1979-06-24 21:00:00 TS 12.1667 -120.212 main 1611 1611 P________PP___ EP021979 12.1497 -120.212 TS 35 0 12.1497 -120.212 TC 35 12.2344 -120.213 2 35 16 294
1979172N10257 1979 46 EP MM BLANCA 1979-06-25 00:00:00 TS 12.5000 -121.000 35 hurdat_epa main 1645 1645 O________OO___ hurdat_epa EP021979 12.5000 -121.000 TS 35 0 12.5000 -121.000 TC 35 12.5000 -121.000 2 35 17 288
1979172N10257 1979 46 EP MM BLANCA 1979-06-25 03:00:00 TS 12.6788 -121.861 main 1691 1691 P________PP___ EP021979 12.6647 -121.856 TS 30 -1 12.6647 -121.856 TC 30 12.7352 -121.882 2 32 18 281
1979172N10257 1979 46 EP MM BLANCA 1979-06-25 06:00:00 TS 12.8283 -122.809 25 hurdat_epa main 1742 1742 O________OP___ hurdat_epa EP021979 12.8000 -122.800 TD 25 -1 12.8000 -122.800 TC 25 12.9417 -122.844 2 30 20 281
1979172N10257 1979 46 EP MM BLANCA 1979-06-25 09:00:00 TS 13.0422 -123.833 main 1794 1793 P________PP___ EP021979 13.0209 -123.827 TD 25 -1 13.0209 -123.827 TC 25 13.1273 -123.858 2 27 21 283
1979172N10257 1979 46 EP MM BLANCA 1979-06-25 12:00:00 TS 13.3000 -124.900 25 hurdat_epa main 1851 O________OO___ hurdat_epa EP021979 13.3000 -124.900 TD 25 -1 13.3000 -124.900 TC 25 13.3000 -124.900 6 25 21 284

About IBTrACS Database

This database is a web-friendly format of International Best Track Archive for Climate Stewardship (IBTrACS), a global best track data archive curated by NOAA dating back to 1842.

Updated: 2021-10-21